Portada
METAR-TAF:

METAR-TAF

Aeropuertos :

Pekín, China

Aeropuerto Internacional de Pekín-Capital

latitud: 39-56N, longitud: 116-17E, altitud: 55 m

Observación

El informe se hizo hace 31 minutos, a las 17:00 UTC
Viento 2 kt con dirección variable
Temperatura -6°C
Humedad 79%
Presión 1028 hPa
Visibilidad: 6000 m

METAR: ZBAA 191700Z VRB01MPS 6000 NSC M06/M09 Q1028 NOSIG

Hora: 01:31 (17:31 UTC)

Pronóstico

El informe se hizo hace 8 horas y 1 minutos, a las 09:30 UTC
Pronóstico válido del 19 a las 12 UTC al 20 a las 12 UTC
Viento 8 kt del sur
Visibilidad: 5000 m
neblina

TAF: ZBAA 190930Z 1912/2012 18004MPS 5000 BR NSC TX09/2007Z TNM09/21Z

Observaciones y pronósticos meteorológicos de más de 4000 aeropuertos (mensajes METAR y TAF).

Los puntos amarillos y rojos representan las estaciones disponibles.

Ponga el ratón en el punto deseado para ver el nombre de la estación.

Haga clic para ver las observaciones y los pronósticos meteorológicos.

Para cambiar el mapa : haga clic en los botones verdes con una cruz de color negro para hacer un zoom, en el botón verde con un guión para alejar o en las flechas verdes para mapas adyacentes.


METAR-TAF: